Time;durP1;ratioP1;P1;durP2;ratioP2;P2;SDS_P1;SDS_P2;PMS_P1;PMS_P2;Temp;Humidity;BMP_temperature;BMP_pressure;BME280_temperature;BME280_humidity;BME280_pressure;Samples;Min_cycle;Max_cycle;Signal;HPM_P1;HPM_P2
2023/08/29 00:01:34;;;;;;;0.17;0.17;;;;;;;21.82;58.89;101353.72;5050395;28;20029;-65
2023/08/29 00:04:00;;;;;;;0.10;0.10;;;;;;;21.80;58.83;101344.13;5049839;28;20045;-65
2023/08/29 00:06:25;;;;;;;0.13;0.13;;;;;;;21.92;58.57;101344.59;5049766;28;20532;-65
2023/08/29 00:08:51;;;;;;;0.20;0.20;;;;;;;21.77;58.88;101347.47;5049805;28;20064;-65
2023/08/29 00:11:19;;;;;;;0.10;0.10;;;;;;;21.78;58.52;101351.81;5049246;28;20017;-65
2023/08/29 00:13:45;;;;;;;0.20;0.20;;;;;;;21.82;57.97;101344.69;5050009;28;20033;-65
2023/08/29 00:16:16;;;;;;;0.10;0.10;;;;;;;21.73;58.57;101340.94;5063058;28;20024;-65
2023/08/29 00:18:42;;;;;;;0.10;0.10;;;;;;;21.59;58.55;101335.31;5069829;28;20046;-64
2023/08/29 00:21:07;;;;;;;0.20;0.20;;;;;;;21.60;58.41;101336.91;5069497;28;20517;-64
2023/08/29 00:23:33;;;;;;;0.10;0.10;;;;;;;21.69;58.55;101323.44;5046851;28;20029;-64
2023/08/29 00:25:58;;;;;;;0.20;0.20;;;;;;;21.73;58.52;101322.59;5064369;28;20404;-64
2023/08/29 00:28:24;;;;;;;0.10;0.10;;;;;;;21.82;58.14;101320.91;5048910;28;20511;-65
2023/08/29 00:30:50;;;;;;;0.20;0.20;;;;;;;21.82;57.57;101320.06;5048871;28;20052;-64
2023/08/29 00:33:16;;;;;;;0.20;0.20;;;;;;;21.82;57.96;101320.91;5049012;28;20471;-64
2023/08/29 00:35:41;;;;;;;0.20;0.20;;;;;;;21.69;58.03;101318.81;5049094;28;20056;-65
2023/08/29 00:38:09;;;;;;;0.10;0.10;;;;;;;21.80;57.58;101314.03;5049023;28;20033;-65
2023/08/29 00:40:35;;;;;;;0.10;0.10;;;;;;;21.63;57.81;101313.66;5049487;28;20032;-65
2023/08/29 00:43:02;;;;;;;0.10;0.10;;;;;;;21.52;58.51;101301.97;5048754;28;20037;-65
2023/08/29 00:45:30;;;;;;;0.20;0.20;;;;;;;21.57;58.58;101304.69;5063107;28;20037;-65
2023/08/29 00:47:56;;;;;;;0.20;0.20;;;;;;;21.68;57.96;101303.47;5047976;28;20043;-65
2023/08/29 00:50:22;;;;;;;0.10;0.10;;;;;;;21.58;58.23;101300.81;5048938;28;20040;-65
2023/08/29 00:52:47;;;;;;;0.10;0.10;;;;;;;21.67;58.53;101304.59;5049498;28;20025;-65
2023/08/29 00:55:14;;;;;;;0.20;0.20;;;;;;;21.77;57.87;101300.94;5048852;28;20040;-65
2023/08/29 00:57:39;;;;;;;0.10;0.10;;;;;;;21.52;58.42;101299.25;5048911;28;20124;-65
2023/08/29 01:00:06;;;;;;;0.20;0.20;;;;;;;21.47;58.13;101303.94;5048993;28;20037;-65
2023/08/29 01:02:32;;;;;;;0.20;0.20;;;;;;;21.52;58.10;101292.97;5048827;28;20033;-65
2023/08/29 01:04:57;;;;;;;0.10;0.10;;;;;;;21.42;59.15;101302.09;5049443;28;20079;-66
2023/08/29 01:07:23;;;;;;;0.10;0.10;;;;;;;21.63;58.97;101299.97;5048819;28;20036;-65
2023/08/29 01:09:49;;;;;;;0.10;0.10;;;;;;;21.56;59.57;101294.84;5034212;28;20041;-66
2023/08/29 01:12:19;;;;;;;0.20;0.20;;;;;;;21.68;59.01;101294.44;5050429;28;20052;-64
2023/08/29 01:14:58;;;;;;;0.20;0.20;;;;;;;21.68;58.40;101291.72;5068918;28;20480;-65
2023/08/29 01:17:34;;;;;;;0.10;0.10;;;;;;;21.70;57.96;101290.31;5068834;28;20041;-64
2023/08/29 01:20:01;;;;;;;0.10;0.10;;;;;;;21.41;59.26;101292.22;5063710;28;20036;-65
2023/08/29 01:23:01;;;;;;;0.10;0.10;;;;;;;21.77;58.22;101290.00;5048598;28;20040;-64
2023/08/29 01:25:54;;;;;;;0.20;0.20;;;;;;;21.49;58.30;101291.63;5048536;28;20047;-66
2023/08/29 01:28:20;;;;;;;0.13;0.13;;;;;;;21.45;57.84;101293.28;5005936;28;20049;-65
2023/08/29 01:30:46;;;;;;;0.10;0.10;;;;;;;21.37;58.23;101299.38;4983157;28;20058;-65
2023/08/29 01:33:13;;;;;;;0.20;0.20;;;;;;;21.47;57.75;101301.19;4977621;28;20049;-65
2023/08/29 01:35:45;;;;;;;0.20;0.20;;;;;;;21.38;58.10;101294.72;4971793;28;20371;-65
2023/08/29 01:38:11;;;;;;;0.10;0.10;;;;;;;21.19;58.52;101304.72;4986450;28;20061;-65
2023/08/29 01:40:37;;;;;;;0.20;0.20;;;;;;;21.20;58.39;101303.59;4989974;28;20124;-65
2023/08/29 01:43:03;;;;;;;0.10;0.10;;;;;;;21.40;57.82;101308.94;4990614;28;20208;-66
2023/08/29 01:45:28;;;;;;;0.20;0.20;;;;;;;21.29;58.35;101310.91;4986034;28;20038;-65
2023/08/29 01:47:53;;;;;;;0.10;0.10;;;;;;;21.30;58.22;101323.50;4990505;28;20050;-65
2023/08/29 01:50:20;;;;;;;0.20;0.20;;;;;;;21.24;58.71;101321.91;4990341;28;20045;-65
2023/08/29 01:52:46;;;;;;;0.10;0.10;;;;;;;21.20;57.80;101325.47;4991134;28;20333;-65
2023/08/29 01:55:11;;;;;;;0.20;0.20;;;;;;;21.22;57.82;101324.09;4990345;28;20498;-65
2023/08/29 01:57:38;;;;;;;0.17;0.17;;;;;;;21.14;57.94;101324.69;4990522;28;20042;-65
2023/08/29 02:00:04;;;;;;;0.10;0.10;;;;;;;21.15;57.72;101329.06;4990483;28;20149;-65
2023/08/29 02:02:30;;;;;;;0.10;0.10;;;;;;;21.04;58.17;101319.28;4990247;28;20398;-65
2023/08/29 02:04:55;;;;;;;0.15;0.15;;;;;;;20.88;58.10;101314.97;4993139;28;20049;-67
2023/08/29 02:07:21;;;;;;;0.20;0.20;;;;;;;20.86;58.32;101314.44;5017960;28;20033;-65
2023/08/29 02:09:46;;;;;;;0.10;0.10;;;;;;;20.97;58.93;101314.09;5033730;28;20056;-64
2023/08/29 02:12:11;;;;;;;0.10;0.10;;;;;;;21.10;58.42;101317.34;5052255;28;20029;-64
2023/08/29 02:14:37;;;;;;;0.20;0.20;;;;;;;20.93;59.80;101315.75;5052308;28;20527;-65
2023/08/29 02:17:03;;;;;;;0.08;0.08;;;;;;;21.07;58.13;101324.19;5040437;28;20037;-65
2023/08/29 02:19:28;;;;;;;0.10;0.10;;;;;;;20.98;58.05;101326.69;5031931;28;20599;-65
2023/08/29 02:21:54;;;;;;;0.10;0.10;;;;;;;21.00;58.66;101321.75;5032050;28;20029;-65
2023/08/29 02:24:19;;;;;;;0.10;0.10;;;;;;;21.03;57.31;101323.13;5032045;28;20115;-65
2023/08/29 02:26:45;;;;;;;0.10;0.10;;;;;;;20.88;58.72;101324.00;5032140;28;20082;-64
2023/08/29 02:29:10;;;;;;;0.10;0.10;;;;;;;20.91;57.59;101328.88;5013863;28;20068;-66
2023/08/29 02:31:37;;;;;;;0.13;0.13;;;;;;;20.90;58.36;101327.28;5045162;28;20057;-65
2023/08/29 02:34:02;;;;;;;0.20;0.20;;;;;;;20.79;58.21;101331.16;5033184;28;20029;-65
2023/08/29 02:36:27;;;;;;;0.20;0.20;;;;;;;20.77;58.49;101332.53;5051751;28;20103;-66
2023/08/29 02:38:53;;;;;;;0.10;0.10;;;;;;;20.84;58.06;101328.41;5051843;28;20075;-66
2023/08/29 02:41:19;;;;;;;0.17;0.17;;;;;;;20.72;58.09;101332.53;5051356;28;20021;-66
2023/08/29 02:43:44;;;;;;;0.10;0.10;;;;;;;20.53;58.82;101329.63;5051903;28;20240;-66
2023/08/29 02:46:09;;;;;;;0.13;0.13;;;;;;;20.54;58.69;101330.47;5051424;28;20033;-65
2023/08/29 02:48:35;;;;;;;0.10;0.10;;;;;;;20.48;58.95;101323.38;5051469;28;20417;-65
2023/08/29 02:51:00;;;;;;;0.10;0.10;;;;;;;20.46;59.31;101326.38;5051040;28;20033;-66
2023/08/29 02:53:26;;;;;;;0.20;0.20;;;;;;;20.58;58.20;101335.06;5033396;28;20044;-66
2023/08/29 02:55:52;;;;;;;0.10;0.10;;;;;;;20.63;58.10;101335.06;5051947;28;20029;-65
2023/08/29 02:58:18;;;;;;;0.20;0.20;;;;;;;20.47;58.02;101349.03;5051352;28;20029;-66
2023/08/29 03:00:44;;;;;;;0.10;0.10;;;;;;;20.39;58.99;101349.59;5051382;28;20401;-66
2023/08/29 03:03:09;;;;;;;0.20;0.20;;;;;;;20.42;58.58;101346.34;5051210;28;20033;-66
2023/08/29 03:05:35;;;;;;;0.10;0.10;;;;;;;20.36;58.72;101345.53;5070034;28;20499;-66
2023/08/29 03:08:03;;;;;;;0.20;0.20;;;;;;;20.46;57.71;101350.16;5071514;28;20423;-66
2023/08/29 03:10:30;;;;;;;0.20;0.20;;;;;;;20.41;57.84;101353.69;5070819;28;20468;-66
2023/08/29 03:12:56;;;;;;;0.10;0.10;;;;;;;20.39;58.22;101368.72;5061849;28;20681;-66
2023/08/29 03:15:21;;;;;;;0.13;0.13;;;;;;;20.32;58.24;101365.47;5050978;28;20060;-65
2023/08/29 03:17:47;;;;;;;0.20;0.20;;;;;;;20.31;58.87;101367.38;5050843;28;20029;-65
2023/08/29 03:20:12;;;;;;;0.20;0.20;;;;;;;20.36;58.26;101361.09;5051010;28;20028;-65
2023/08/29 03:22:38;;;;;;;0.10;0.10;;;;;;;20.20;58.92;101356.75;5051310;28;20516;-65
2023/08/29 03:25:05;;;;;;;0.10;0.10;;;;;;;20.19;58.95;101349.66;5050879;28;20029;-65
2023/08/29 03:27:30;;;;;;;0.20;0.20;;;;;;;20.07;58.99;101347.19;5050355;28;20037;-65
2023/08/29 03:29:55;;;;;;;0.20;0.20;;;;;;;20.19;59.30;101349.66;5066098;28;20047;-65
2023/08/29 03:32:21;;;;;;;0.20;0.20;;;;;;;20.29;58.75;101357.81;5050583;28;20060;-65
2023/08/29 03:34:51;;;;;;;0.20;0.20;;;;;;;20.23;58.74;101358.91;5050997;28;20484;-65
2023/08/29 03:37:17;;;;;;;;;;;;;;;20.35;58.29;101359.44;5050971;28;20045;-65
2023/08/29 03:39:42;;;;;;;0.15;0.15;;;;;;;20.02;59.57;101352.66;5050492;28;19917;-65
2023/08/29 03:42:07;;;;;;;0.20;0.20;;;;;;;20.11;58.81;101351.81;5050381;28;20045;-65
2023/08/29 03:44:33;;;;;;;0.10;0.10;;;;;;;19.91;59.37;101346.38;5050334;28;20574;-65
2023/08/29 03:46:58;;;;;;;0.10;0.10;;;;;;;20.04;59.08;101345.84;5050683;28;20037;-65
2023/08/29 03:49:24;;;;;;;0.10;0.10;;;;;;;20.11;58.55;101346.38;5050241;28;20037;-65
2023/08/29 03:51:50;;;;;;;0.20;0.20;;;;;;;20.15;58.06;101338.44;5050084;28;20037;-65
2023/08/29 03:54:15;;;;;;;0.20;0.20;;;;;;;20.07;58.44;101341.72;5050550;28;20040;-65
2023/08/29 03:56:40;;;;;;;0.17;0.17;;;;;;;20.00;58.56;101335.75;5031990;28;20032;-65
2023/08/29 03:59:06;;;;;;;0.20;0.20;;;;;;;19.92;58.52;101328.94;5050179;28;20028;-65
2023/08/29 04:01:32;;;;;;;0.20;0.20;;;;;;;19.91;58.46;101329.22;5055040;28;20067;-65
2023/08/29 04:03:57;;;;;;;0.10;0.10;;;;;;;19.90;58.33;101331.13;5029520;28;20148;-65
2023/08/29 04:06:22;;;;;;;0.20;0.20;;;;;;;19.79;58.91;101320.50;5033341;28;20391;-64
2023/08/29 04:08:48;;;;;;;0.10;0.10;;;;;;;19.67;59.33;101319.97;5046586;28;20048;-65
2023/08/29 04:11:13;;;;;;;0.13;0.13;;;;;;;19.86;59.14;101313.69;5034971;28;20029;-65
2023/08/29 04:13:38;;;;;;;0.10;0.10;;;;;;;19.68;60.15;101310.69;5049791;28;20040;-66
2023/08/29 04:16:04;;;;;;;0.20;0.20;;;;;;;19.98;58.94;101307.94;5048684;28;20036;-66
2023/08/29 04:18:33;;;;;;;0.10;0.10;;;;;;;19.93;59.83;101299.75;5049336;28;20037;-65
2023/08/29 04:20:59;;;;;;;0.10;0.10;;;;;;;19.94;59.63;101294.03;5049767;28;20033;-65
2023/08/29 04:23:25;;;;;;;0.20;0.20;;;;;;;19.83;59.04;101288.88;5049409;28;20397;-65
2023/08/29 04:25:57;;;;;;;0.10;0.10;;;;;;;19.85;59.31;101287.47;5049854;28;20389;-66
2023/08/29 04:28:22;;;;;;;0.20;0.20;;;;;;;19.84;58.74;101283.13;5031178;28;20029;-66
2023/08/29 04:30:47;;;;;;;0.20;0.20;;;;;;;19.82;59.48;101279.84;5048962;28;20413;-66
2023/08/29 04:33:13;;;;;;;0.17;0.17;;;;;;;19.61;59.65;101275.53;5063651;28;20048;-66
2023/08/29 04:35:38;;;;;;;0.10;0.10;;;;;;;19.64;59.49;101274.16;5049279;28;20044;-65
2023/08/29 04:38:04;;;;;;;0.10;0.10;;;;;;;19.48;60.23;101278.00;5049556;28;20469;-65
2023/08/29 04:40:29;;;;;;;0.10;0.10;;;;;;;19.44;59.98;101285.09;5050914;28;20071;-65
2023/08/29 04:42:54;;;;;;;0.20;0.20;;;;;;;19.68;59.13;101277.97;5058022;28;20039;-66
2023/08/29 04:45:20;;;;;;;0.20;0.20;;;;;;;19.53;59.77;101276.09;5059050;28;20029;-66
2023/08/29 04:47:46;;;;;;;0.20;0.20;;;;;;;19.60;59.36;101278.50;5059370;28;20024;-66
2023/08/29 04:50:11;;;;;;;0.30;0.30;;;;;;;19.52;59.45;101268.19;5058846;28;20346;-66
2023/08/29 04:52:37;;;;;;;0.20;0.20;;;;;;;19.57;59.52;101273.63;5058132;28;20027;-65
2023/08/29 04:55:05;;;;;;;0.10;0.10;;;;;;;19.62;59.77;101268.16;5059371;28;20025;-66
2023/08/29 04:57:32;;;;;;;0.20;0.20;;;;;;;19.73;60.27;101267.06;5058121;28;20029;-66
2023/08/29 04:59:58;;;;;;;0.20;0.20;;;;;;;19.46;60.51;101270.06;5057448;28;20704;-65
2023/08/29 05:02:23;;;;;;;0.10;0.10;;;;;;;19.71;59.48;101277.44;5054541;28;20052;-66
2023/08/29 05:04:49;;;;;;;0.10;0.10;;;;;;;19.72;59.07;101266.22;5058320;28;20477;-65
2023/08/29 05:07:14;;;;;;;0.10;0.10;;;;;;;19.69;58.94;101265.97;5050657;28;20120;-66
2023/08/29 05:09:39;;;;;;;0.10;0.10;;;;;;;19.75;59.11;101265.66;5053314;28;20028;-66
2023/08/29 05:12:07;;;;;;;0.20;0.20;;;;;;;19.54;59.77;101263.25;5057517;28;20188;-66
2023/08/29 05:14:32;;;;;;;0.15;0.15;;;;;;;19.67;59.31;101270.88;5065777;28;20439;-66
2023/08/29 05:16:57;;;;;;;0.10;0.10;;;;;;;19.73;59.90;101272.50;5038667;28;20029;-66
2023/08/29 05:19:23;;;;;;;0.10;0.10;;;;;;;19.92;59.88;101281.75;5047797;28;20041;-66
2023/08/29 05:21:48;;;;;;;0.10;0.10;;;;;;;19.94;59.78;101274.94;5048467;28;20033;-66
2023/08/29 05:24:14;;;;;;;0.10;0.10;;;;;;;19.85;60.16;101275.78;5048549;28;20411;-66
2023/08/29 05:26:39;;;;;;;0.22;0.22;;;;;;;19.94;59.89;101269.47;5048572;28;20033;-66
2023/08/29 05:29:04;;;;;;;0.10;0.10;;;;;;;19.88;60.39;101286.94;5048755;28;20495;-65
2023/08/29 05:31:30;;;;;;;0.17;0.17;;;;;;;19.88;60.35;101286.94;5048008;28;20017;-65
2023/08/29 05:33:55;;;;;;;0.10;0.10;;;;;;;19.86;60.43;101283.66;5047094;28;20529;-64
2023/08/29 05:36:21;;;;;;;0.15;0.15;;;;;;;19.93;60.83;101284.19;5048396;28;20096;-65
2023/08/29 05:38:47;;;;;;;0.22;0.22;;;;;;;20.09;60.13;101282.25;5048791;28;20056;-65
2023/08/29 05:41:13;;;;;;;0.20;0.20;;;;;;;20.20;60.21;101280.34;5047784;28;20024;-65
2023/08/29 05:43:38;;;;;;;0.10;0.10;;;;;;;20.26;59.78;101280.06;5048330;28;20021;-64
2023/08/29 05:46:03;;;;;;;0.20;0.20;;;;;;;20.36;60.06;101282.75;5062852;28;20524;-66
2023/08/29 05:48:29;;;;;;;0.10;0.10;;;;;;;20.37;59.79;101286.28;5047224;28;20488;-64
2023/08/29 05:50:54;;;;;;;0.10;0.10;;;;;;;20.26;60.37;101288.25;5047384;28;20055;-65
2023/08/29 05:53:20;;;;;;;0.10;0.10;;;;;;;20.41;60.10;101285.44;5047943;28;20037;-65
2023/08/29 05:55:46;;;;;;;0.20;0.20;;;;;;;20.24;60.22;101279.50;5048071;28;20428;-65
2023/08/29 05:58:11;;;;;;;0.10;0.10;;;;;;;20.37;60.38;101289.81;5047099;28;20037;-65
2023/08/29 06:00:37;;;;;;;0.20;0.20;;;;;;;20.51;59.71;101288.13;5043981;28;20395;-65
2023/08/29 06:03:04;;;;;;;0.20;0.20;;;;;;;20.39;60.38;101289.53;5037440;28;20374;-65
2023/08/29 06:05:31;;;;;;;0.10;0.10;;;;;;;20.57;60.01;101292.47;5038635;28;20109;-65
2023/08/29 06:08:00;;;;;;;0.20;0.20;;;;;;;20.44;60.37;101286.81;5039490;28;20616;-65
2023/08/29 06:10:26;;;;;;;0.10;0.10;;;;;;;20.25;61.00;101283.03;5036734;28;20045;-65
2023/08/29 06:12:51;;;;;;;0.17;0.17;;;;;;;20.51;60.59;101279.13;5038222;28;20033;-66
2023/08/29 06:15:17;;;;;;;0.20;0.20;;;;;;;20.48;61.03;101283.22;5038566;28;20041;-66
2023/08/29 06:17:42;;;;;;;0.20;0.20;;;;;;;20.58;60.52;101285.09;5037529;28;20025;-65
2023/08/29 06:20:09;;;;;;;0.22;0.22;;;;;;;20.29;61.95;101284.94;5038426;28;20080;-65
2023/08/29 06:22:34;;;;;;;0.20;0.20;;;;;;;20.23;63.11;101282.50;5037527;28;20084;-66
2023/08/29 06:25:00;;;;;;;0.20;0.20;;;;;;;20.62;61.91;101286.97;5019733;28;20140;-65
2023/08/29 06:27:25;;;;;;;0.20;0.20;;;;;;;20.20;63.20;101285.78;5041820;28;20029;-65
2023/08/29 06:29:51;;;;;;;0.10;0.10;;;;;;;20.91;60.53;101278.91;5022000;28;20029;-65
2023/08/29 06:32:16;;;;;;;0.10;0.10;;;;;;;21.16;60.81;101281.50;5041664;28;20052;-65
2023/08/29 06:34:41;;;;;;;0.10;0.10;;;;;;;21.28;60.37;101275.66;5041578;28;20076;-66
2023/08/29 06:37:07;;;;;;;0.10;0.10;;;;;;;21.20;60.63;101279.81;5040049;28;20036;-66
2023/08/29 06:39:32;;;;;;;0.10;0.10;;;;;;;21.55;60.28;101276.81;5036983;28;20029;-66
2023/08/29 06:41:58;;;;;;;0.10;0.10;;;;;;;21.46;61.80;101281.25;5040455;28;20026;-65
2023/08/29 06:44:23;;;;;;;0.20;0.20;;;;;;;21.35;62.05;101279.69;5050564;28;20021;-65
2023/08/29 06:46:49;;;;;;;0.20;0.20;;;;;;;21.75;61.55;101279.34;5051183;28;20025;-66
2023/08/29 06:49:15;;;;;;;0.17;0.17;;;;;;;21.97;60.94;101276.16;5050588;28;20029;-66
2023/08/29 06:51:41;;;;;;;0.17;0.17;;;;;;;21.93;62.08;101275.09;5050885;28;20116;-65
2023/08/29 06:54:06;;;;;;;0.10;0.10;;;;;;;21.30;64.75;101270.72;5050741;28;20492;-66
2023/08/29 06:56:32;;;;;;;0.10;0.10;;;;;;;21.87;62.10;101269.97;5050484;28;20033;-67
2023/08/29 06:58:58;;;;;;;0.17;0.17;;;;;;;22.56;60.46;101262.03;5050937;28;20020;-66
2023/08/29 07:01:24;;;;;;;0.10;0.10;;;;;;;22.91;59.76;101267.03;5050422;28;20083;-65
2023/08/29 07:03:49;;;;;;;0.10;0.10;;;;;;;23.01;59.53;101264.13;5050405;28;20494;-65
2023/08/29 07:06:14;;;;;;;0.20;0.20;;;;;;;23.13;59.30;101264.50;5050432;28;20484;-66
2023/08/29 07:08:40;;;;;;;0.10;0.10;;;;;;;22.97;60.06;101260.38;5032172;28;20037;-66
2023/08/29 07:11:06;;;;;;;0.10;0.10;;;;;;;23.11;60.72;101274.94;5050521;28;20021;-67
2023/08/29 07:13:32;;;;;;;0.20;0.20;;;;;;;23.34;60.06;101268.56;5050591;28;20027;-65
2023/08/29 07:15:57;;;;;;;0.20;0.20;;;;;;;23.10;60.93;101267.81;5050069;28;20029;-66
2023/08/29 07:18:23;;;;;;;0.10;0.10;;;;;;;23.89;58.83;101266.75;5049372;28;20408;-67
2023/08/29 07:20:51;;;;;;;0.20;0.20;;;;;;;24.10;58.07;101267.19;5050925;28;20393;-67
2023/08/29 07:23:17;;;;;;;0.10;0.10;;;;;;;23.97;58.28;101266.06;5050595;28;20033;-66
2023/08/29 07:25:44;;;;;;;0.13;0.13;;;;;;;24.09;57.57;101252.69;5051028;28;20060;-67
2023/08/29 07:28:13;;;;;;;0.10;0.10;;;;;;;23.80;57.38;101257.63;5050419;28;20033;-65
2023/08/29 07:30:44;;;;;;;0.10;0.10;;;;;;;23.93;57.34;101265.03;5046586;28;20029;-64
2023/08/29 07:33:10;;;;;;;0.10;0.10;;;;;;;24.39;56.28;101263.03;5043483;28;20045;-66
2023/08/29 07:35:38;;;;;;;0.00;0.00;;;;;;;24.51;56.02;101272.69;5050691;28;20424;-66
2023/08/29 07:38:04;;;;;;;0.10;0.10;;;;;;;24.22;56.35;101264.78;5049859;28;20497;-66
2023/08/29 07:40:30;;;;;;;0.10;0.10;;;;;;;24.15;56.96;101264.38;5050335;28;20033;-66
2023/08/29 07:42:55;;;;;;;0.10;0.10;;;;;;;24.53;56.46;101263.00;5050176;28;20049;-65
2023/08/29 07:45:20;;;;;;;0.10;0.10;;;;;;;24.88;55.86;101262.28;5055005;28;20059;-65
2023/08/29 07:47:46;;;;;;;0.10;0.10;;;;;;;24.69;55.88;101261.56;5070161;28;20546;-65
2023/08/29 07:50:11;;;;;;;0.10;0.10;;;;;;;24.86;55.24;101269.19;5069982;28;20020;-65
2023/08/29 07:52:37;;;;;;;0.10;0.10;;;;;;;25.01;54.76;101266.91;5070900;28;20485;-66
2023/08/29 07:55:04;;;;;;;0.00;0.00;;;;;;;24.88;54.76;101267.78;5053836;28;20045;-65
2023/08/29 07:57:30;;;;;;;0.10;0.10;;;;;;;25.09;53.97;101266.16;5049981;28;20037;-65
2023/08/29 07:59:55;;;;;;;0.10;0.10;;;;;;;24.89;54.74;101265.81;5049816;28;20052;-66
2023/08/29 08:02:20;;;;;;;0.00;0.00;;;;;;;25.13;54.28;101266.34;5049886;28;20048;-66
2023/08/29 08:04:46;;;;;;;0.00;0.00;;;;;;;25.17;54.47;101267.34;5050349;28;20083;-66
2023/08/29 08:07:11;;;;;;;0.10;0.10;;;;;;;25.26;53.78;101266.28;5049742;28;20041;-66
2023/08/29 08:09:37;;;;;;;0.10;0.10;;;;;;;25.35;53.58;101268.28;5049701;28;20586;-67
2023/08/29 08:12:03;;;;;;;0.10;0.10;;;;;;;25.74;52.79;101260.97;5049716;28;20036;-66
2023/08/29 08:14:28;;;;;;;0.00;0.00;;;;;;;25.44;53.44;101259.00;5049645;28;20345;-66
2023/08/29 08:16:53;;;;;;;0.00;0.00;;;;;;;25.62;53.16;101268.16;5032325;28;20029;-66
2023/08/29 08:19:19;;;;;;;0.03;0.03;;;;;;;25.23;54.09;101274.34;5042694;28;20036;-66
2023/08/29 08:21:44;;;;;;;0.10;0.10;;;;;;;25.74;53.33;101269.22;5049564;28;20048;-66
2023/08/29 08:24:10;;;;;;;0.00;0.00;;;;;;;25.45;53.87;101263.38;5049562;28;20094;-66
2023/08/29 08:26:35;;;;;;;0.00;0.00;;;;;;;25.26;54.38;101269.03;5031039;28;20033;-66
2023/08/29 08:29:03;;;;;;;0.00;0.00;;;;;;;24.83;56.04;101269.81;5050447;28;20033;-65
2023/08/29 08:31:29;;;;;;;0.00;0.00;;;;;;;25.52;53.94;101266.50;5049373;28;20029;-66
2023/08/29 08:33:56;;;;;;;0.10;0.10;;;;;;;25.53;54.33;101262.63;5047128;28;20508;-66
2023/08/29 08:36:21;;;;;;;0.00;0.00;;;;;;;25.38;53.50;101265.72;5049391;28;20039;-65
2023/08/29 08:38:47;;;;;;;0.00;0.00;;;;;;;26.03;52.54;101260.44;5045020;28;20041;-66
2023/08/29 08:41:14;;;;;;;0.00;0.00;;;;;;;25.13;54.47;101266.34;5052610;28;20024;-65
2023/08/29 08:43:41;;;;;;;0.00;0.00;;;;;;;26.04;52.35;101262.88;5065475;28;20143;-66
2023/08/29 08:46:07;;;;;;;0.00;0.00;;;;;;;26.33;51.57;101259.59;5047462;28;20341;-66
2023/08/29 08:48:33;;;;;;;0.00;0.00;;;;;;;25.58;54.19;101256.16;5048833;28;20029;-65
2023/08/29 08:51:00;;;;;;;0.00;0.00;;;;;;;25.80;52.65;101256.13;5045978;28;20057;-66
2023/08/29 08:53:27;;;;;;;0.10;0.10;;;;;;;25.62;53.04;101257.97;5049213;28;20514;-66
2023/08/29 08:55:53;;;;;;;0.00;0.00;;;;;;;25.93;52.06;101255.22;5049472;28;20028;-65
2023/08/29 08:58:18;;;;;;;0.00;0.00;;;;;;;25.77;52.26;101257.56;5049175;28;20443;-65
2023/08/29 09:00:44;;;;;;;0.00;0.00;;;;;;;25.92;50.63;101259.09;5048757;28;20082;-65
2023/08/29 09:03:10;;;;;;;0.00;0.00;;;;;;;26.48;48.85;101261.09;5048896;28;20087;-66
2023/08/29 09:05:35;;;;;;;0.00;0.00;;;;;;;26.43;48.38;101264.81;5048887;28;20039;-66
2023/08/29 09:08:01;;;;;;;0.00;0.00;;;;;;;26.10;49.05;101258.88;5048879;28;20031;-65
2023/08/29 09:10:33;;;;;;;0.00;0.00;;;;;;;25.87;49.63;101262.81;5048629;28;20124;-64
2023/08/29 09:12:58;;;;;;;0.00;0.00;;;;;;;26.81;46.63;101265.88;5052089;28;20074;-65
2023/08/29 09:15:25;;;;;;;0.00;0.00;;;;;;;26.40;47.76;101257.19;5064748;28;20033;-65
2023/08/29 09:17:53;;;;;;;0.00;0.00;;;;;;;26.94;46.62;101258.59;5048503;28;20033;-66
2023/08/29 09:20:20;;;;;;;0.00;0.00;;;;;;;27.06;46.70;101264.28;5021669;28;20099;-66
2023/08/29 09:22:46;;;;;;;0.00;0.00;;;;;;;26.61;47.11;101269.22;5029316;28;20071;-65
2023/08/29 09:25:11;;;;;;;0.00;0.00;;;;;;;26.80;46.12;101263.44;5037642;28;20036;-65
2023/08/29 09:27:41;;;;;;;0.00;0.00;;;;;;;26.41;47.14;101263.50;5068506;28;20033;-65
2023/08/29 09:30:13;;;;;;;0.00;0.00;;;;;;;26.11;47.60;101276.22;5068288;28;20057;-65
2023/08/29 09:32:46;;;;;;;0.00;0.00;;;;;;;27.15;45.65;101269.78;5068225;28;20358;-65
2023/08/29 09:35:16;;;;;;;0.00;0.00;;;;;;;26.47;47.36;101267.75;5043889;28;20163;-65
2023/08/29 09:37:53;;;;;;;0.00;0.00;;;;;;;26.81;46.55;101276.13;5050715;28;20032;-66
2023/08/29 09:40:20;;;;;;;0.00;0.00;;;;;;;26.67;46.41;101265.19;5068064;28;20032;-64
2023/08/29 09:42:58;;;;;;;0.00;0.00;;;;;;;26.64;44.61;101265.84;5068090;28;20036;-65
2023/08/29 09:45:23;;;;;;;0.00;0.00;;;;;;;26.85;44.21;101264.09;5049993;28;20347;-66
2023/08/29 09:47:52;;;;;;;0.00;0.00;;;;;;;26.63;46.10;101263.41;5047196;28;20072;-64
2023/08/29 09:50:18;;;;;;;0.00;0.00;;;;;;;26.54;45.86;101268.88;5048144;28;20560;-64
2023/08/29 09:52:44;;;;;;;0.00;0.00;;;;;;;26.68;45.58;101266.81;5049261;28;20111;-66
2023/08/29 09:55:11;;;;;;;0.00;0.00;;;;;;;26.61;46.29;101266.47;5029097;28;20480;-66
2023/08/29 09:57:37;;;;;;;0.00;0.00;;;;;;;26.74;46.27;101256.47;5048210;28;20037;-64
2023/08/29 10:00:04;;;;;;;0.00;0.00;;;;;;;26.86;44.21;101260.22;5048762;28;20686;-65
2023/08/29 10:02:30;;;;;;;0.00;0.00;;;;;;;26.44;45.15;101257.34;5063290;28;20036;-65
2023/08/29 10:05:08;;;;;;;0.00;0.00;;;;;;;25.92;47.86;101259.91;5072625;28;20036;-66
2023/08/29 10:07:42;;;;;;;0.00;0.00;;;;;;;26.75;46.37;101253.38;5061911;28;20493;-66
2023/08/29 10:10:09;;;;;;;0.00;0.00;;;;;;;26.33;45.69;101247.75;5051388;28;20036;-66
2023/08/29 10:12:35;;;;;;;0.00;0.00;;;;;;;26.57;45.70;101248.16;5051786;28;20124;-64
2023/08/29 10:15:03;;;;;;;0.00;0.00;;;;;;;26.79;44.99;101248.06;5051371;28;20276;-64
2023/08/29 10:17:30;;;;;;;0.00;0.00;;;;;;;27.11;44.84;101241.22;5046646;28;20025;-65
2023/08/29 10:19:57;;;;;;;0.00;0.00;;;;;;;27.58;43.71;101241.00;5052105;28;20341;-66
2023/08/29 10:22:25;;;;;;;0.00;0.00;;;;;;;27.67;43.92;101239.03;5051709;28;20032;-65
2023/08/29 10:24:52;;;;;;;0.00;0.00;;;;;;;26.93;45.24;101241.22;5051690;28;20040;-65
2023/08/29 10:27:17;;;;;;;0.00;0.00;;;;;;;27.39;44.25;101237.81;5051547;28;20167;-66
2023/08/29 10:29:42;;;;;;;0.00;0.00;;;;;;;27.89;43.26;101238.00;5051295;28;20041;-66
2023/08/29 10:32:08;;;;;;;0.00;0.00;;;;;;;27.73;44.17;101242.44;5051605;28;20059;-65
2023/08/29 10:34:35;;;;;;;0.00;0.00;;;;;;;28.22;43.24;101244.53;5047467;28;20056;-65
2023/08/29 10:37:01;;;;;;;0.00;0.00;;;;;;;27.13;43.65;101241.69;5050936;28;20124;-65
2023/08/29 10:39:27;;;;;;;0.00;0.00;;;;;;;27.06;43.92;101241.38;5051167;28;20045;-64
2023/08/29 10:41:54;;;;;;;0.00;0.00;;;;;;;27.56;43.25;101232.22;5050979;28;20115;-66
2023/08/29 10:44:29;;;;;;;0.00;0.00;;;;;;;27.84;42.42;101224.34;5044341;28;20045;-66
2023/08/29 10:47:21;;;;;;;0.00;0.00;;;;;;;27.95;41.47;101227.59;5051803;28;20032;-66
2023/08/29 10:49:47;;;;;;;0.00;0.00;;;;;;;27.11;43.55;101230.16;5051105;28;20259;-66
2023/08/29 10:52:14;;;;;;;0.00;0.00;;;;;;;27.95;42.05;101228.38;5051474;28;20035;-65
2023/08/29 10:54:42;;;;;;;0.00;0.00;;;;;;;28.44;41.77;101227.63;5051075;28;20136;-66
2023/08/29 10:57:27;;;;;;;0.00;0.00;;;;;;;28.81;40.75;101225.94;5051137;28;20033;-64
2023/08/29 10:59:53;;;;;;;0.00;0.00;;;;;;;28.54;40.38;101221.72;5050691;28;20390;-65
2023/08/29 11:02:30;;;;;;;0.00;0.00;;;;;;;28.65;40.67;101219.38;5051357;28;20082;-66
2023/08/29 11:05:04;;;;;;;0.00;0.00;;;;;;;28.46;40.56;101230.84;5071304;28;20120;-65
2023/08/29 11:07:31;;;;;;;0.00;0.00;;;;;;;27.35;42.88;101214.75;5061026;28;20047;-65
2023/08/29 11:10:15;;;;;;;0.00;0.00;;;;;;;28.82;40.77;101210.94;5050807;28;20041;-66
2023/08/29 11:13:15;;;;;;;0.00;0.00;;;;;;;28.57;38.51;101206.44;5050393;28;20064;-65
2023/08/29 11:15:49;;;;;;;0.00;0.00;;;;;;;27.64;40.95;101206.53;4964208;28;20050;-65
2023/08/29 11:18:35;;;;;;;0.00;0.00;;;;;;;28.90;39.19;101201.75;4969211;28;20042;-66
2023/08/29 11:21:08;;;;;;;0.00;0.00;;;;;;;28.51;38.61;101200.25;4969217;28;20109;-65
2023/08/29 11:23:37;;;;;;;0.00;0.00;;;;;;;29.32;36.06;101191.44;4969204;28;20135;-65